sensor_id;sensor_type;location;lat;lon;timestamp;pressure;altitude;pressure_sealevel;temperature;humidity
58686;BME280;44465;53.206;-6.106;2023-05-15T00:00:55;102263.81;;;20.78;52.81
58686;BME280;44465;53.206;-6.106;2023-05-15T00:03:21;102256.72;;;20.77;52.64
58686;BME280;44465;53.206;-6.106;2023-05-15T00:05:46;102252.38;;;20.73;52.54
58686;BME280;44465;53.206;-6.106;2023-05-15T00:08:12;102257.69;;;20.74;52.59
58686;BME280;44465;53.206;-6.106;2023-05-15T00:10:37;102262.13;;;20.75;52.67
58686;BME280;44465;53.206;-6.106;2023-05-15T00:13:03;102262.97;;;20.77;52.80
58686;BME280;44465;53.206;-6.106;2023-05-15T00:15:28;102260.38;;;20.74;52.46
58686;BME280;44465;53.206;-6.106;2023-05-15T00:17:54;102258.59;;;20.73;52.38
58686;BME280;44465;53.206;-6.106;2023-05-15T00:20:19;102259.63;;;20.69;52.52
58686;BME280;44465;53.206;-6.106;2023-05-15T00:22:45;102267.53;;;20.72;52.32
58686;BME280;44465;53.206;-6.106;2023-05-15T00:25:10;102263.09;;;20.71;52.44
58686;BME280;44465;53.206;-6.106;2023-05-15T00:27:36;102263.09;;;20.71;52.53
58686;BME280;44465;53.206;-6.106;2023-05-15T00:30:02;102260.44;;;20.71;52.42
58686;BME280;44465;53.206;-6.106;2023-05-15T00:32:27;102255.97;;;20.72;52.68
58686;BME280;44465;53.206;-6.106;2023-05-15T00:34:53;102263.06;;;20.73;52.56
58686;BME280;44465;53.206;-6.106;2023-05-15T00:37:18;102262.19;;;20.72;52.55
58686;BME280;44465;53.206;-6.106;2023-05-15T00:39:44;102253.28;;;20.72;52.59
58686;BME280;44465;53.206;-6.106;2023-05-15T00:42:10;102264.00;;;20.72;52.60
58686;BME280;44465;53.206;-6.106;2023-05-15T00:44:37;102256.81;;;20.72;52.78
58686;BME280;44465;53.206;-6.106;2023-05-15T00:47:04;102260.53;;;20.68;52.41
58686;BME280;44465;53.206;-6.106;2023-05-15T00:49:30;102266.69;;;20.70;52.35
58686;BME280;44465;53.206;-6.106;2023-05-15T00:52:00;102262.38;;;20.66;52.36
58686;BME280;44465;53.206;-6.106;2023-05-15T00:54:27;102271.25;;;20.68;52.45
58686;BME280;44465;53.206;-6.106;2023-05-15T00:56:55;102269.50;;;20.67;52.38
58686;BME280;44465;53.206;-6.106;2023-05-15T00:59:25;102269.56;;;20.64;52.24
58686;BME280;44465;53.206;-6.106;2023-05-15T01:01:52;102266.84;;;20.66;52.41
58686;BME280;44465;53.206;-6.106;2023-05-15T01:04:18;102266.84;;;20.66;52.45
58686;BME280;44465;53.206;-6.106;2023-05-15T01:06:44;102275.72;;;20.68;52.44
58686;BME280;44465;53.206;-6.106;2023-05-15T01:09:10;102271.25;;;20.68;52.48
58686;BME280;44465;53.206;-6.106;2023-05-15T01:11:37;102267.69;;;20.68;52.87
58686;BME280;44465;53.206;-6.106;2023-05-15T01:14:05;102271.25;;;20.68;52.71
58686;BME280;44465;53.206;-6.106;2023-05-15T01:16:34;102269.50;;;20.67;52.77
58686;BME280;44465;53.206;-6.106;2023-05-15T01:19:01;102273.09;;;20.66;52.59
58686;BME280;44465;53.206;-6.106;2023-05-15T01:32:19;102288.38;;;20.63;52.12
58686;BME280;44465;53.206;-6.106;2023-05-15T01:37:27;102284.06;;;20.57;52.40
58686;BME280;44465;53.206;-6.106;2023-05-15T01:39:59;102285.72;;;20.61;52.52
58686;BME280;44465;53.206;-6.106;2023-05-15T01:42:35;102286.56;;;20.63;52.64
58686;BME280;44465;53.206;-6.106;2023-05-15T01:45:04;102288.44;;;20.59;52.49
58686;BME280;44465;53.206;-6.106;2023-05-15T01:47:39;102282.13;;;20.62;52.51
58686;BME280;44465;53.206;-6.106;2023-05-15T01:50:09;102285.72;;;20.61;52.66
58686;BME280;44465;53.206;-6.106;2023-05-15T01:52:38;102284.84;;;20.60;52.62
58686;BME280;44465;53.206;-6.106;2023-05-15T01:55:06;102281.34;;;20.58;52.53
58686;BME280;44465;53.206;-6.106;2023-05-15T01:57:34;102296.41;;;20.63;52.53
58686;BME280;44465;53.206;-6.106;2023-05-15T02:00:00;102276.13;;;20.54;52.51
58686;BME280;44465;53.206;-6.106;2023-05-15T02:02:28;102289.44;;;20.57;52.31
58686;BME280;44465;53.206;-6.106;2023-05-15T02:04:55;102292.94;;;20.59;52.27
58686;BME280;44465;53.206;-6.106;2023-05-15T02:07:22;102278.03;;;20.50;52.08
58686;BME280;44465;53.206;-6.106;2023-05-15T02:09:50;102293.88;;;20.56;52.37
58686;BME280;44465;53.206;-6.106;2023-05-15T02:12:16;102291.28;;;20.55;52.30
58686;BME280;44465;53.206;-6.106;2023-05-15T02:14:42;102292.13;;;20.55;52.46
58686;BME280;44465;53.206;-6.106;2023-05-15T02:17:10;102289.44;;;20.57;52.38
58686;BME280;44465;53.206;-6.106;2023-05-15T02:19:36;102292.97;;;20.57;52.41
58686;BME280;44465;53.206;-6.106;2023-05-15T02:22:01;102286.84;;;20.54;52.57
58686;BME280;44465;53.206;-6.106;2023-05-15T02:24:27;102287.75;;;20.53;52.39
58686;BME280;44465;53.206;-6.106;2023-05-15T02:32:35;102296.63;;;20.55;52.58
58686;BME280;44465;53.206;-6.106;2023-05-15T02:35:18;102293.03;;;20.56;52.50
58686;BME280;44465;53.206;-6.106;2023-05-15T02:37:48;102288.69;;;20.52;52.37
58686;BME280;44465;53.206;-6.106;2023-05-15T02:40:15;102286.09;;;20.49;52.16
58686;BME280;44465;53.206;-6.106;2023-05-15T02:42:43;102298.50;;;20.51;52.24
58686;BME280;44465;53.206;-6.106;2023-05-15T02:45:11;102301.13;;;20.53;52.13
58686;BME280;44465;53.206;-6.106;2023-05-15T02:47:37;102297.53;;;20.54;52.17
58686;BME280;44465;53.206;-6.106;2023-05-15T02:50:04;102303.81;;;20.53;52.42
58686;BME280;44465;53.206;-6.106;2023-05-15T02:52:34;102309.16;;;20.53;52.53
58686;BME280;44465;53.206;-6.106;2023-05-15T02:54:59;102304.72;;;20.52;52.45
58686;BME280;44465;53.206;-6.106;2023-05-15T02:57:25;102306.50;;;20.53;52.56
58686;BME280;44465;53.206;-6.106;2023-05-15T02:59:55;102304.72;;;20.53;52.52
58686;BME280;44465;53.206;-6.106;2023-05-15T03:02:24;102305.72;;;20.49;52.53
58686;BME280;44465;53.206;-6.106;2023-05-15T03:04:49;102306.53;;;20.51;52.51
58686;BME280;44465;53.206;-6.106;2023-05-15T03:07:15;102312.75;;;20.52;52.46
58686;BME280;44465;53.206;-6.106;2023-05-15T03:09:41;102317.25;;;20.51;52.19
58686;BME280;44465;53.206;-6.106;2023-05-15T03:12:07;102314.50;;;20.53;52.34
58686;BME280;44465;53.206;-6.106;2023-05-15T03:14:32;102317.28;;;20.50;52.33
58686;BME280;44465;53.206;-6.106;2023-05-15T03:16:59;102315.50;;;20.50;52.42
58686;BME280;44465;53.206;-6.106;2023-05-15T03:19:24;102312.88;;;20.49;52.00
58686;BME280;44465;53.206;-6.106;2023-05-15T03:21:50;102300.56;;;20.41;52.19
58686;BME280;44465;53.206;-6.106;2023-05-15T03:24:15;102312.88;;;20.49;52.38
58686;BME280;44465;53.206;-6.106;2023-05-15T03:26:41;102311.13;;;20.48;52.35
58686;BME280;44465;53.206;-6.106;2023-05-15T03:29:08;102312.94;;;20.45;52.59
58686;BME280;44465;53.206;-6.106;2023-05-15T03:31:33;102319.09;;;20.49;52.45
58686;BME280;44465;53.206;-6.106;2023-05-15T03:33:59;102323.56;;;20.49;52.46
58686;BME280;44465;53.206;-6.106;2023-05-15T03:36:24;102323.56;;;20.49;52.64
58686;BME280;44465;53.206;-6.106;2023-05-15T03:38:50;102317.31;;;20.48;52.48
58686;BME280;44465;53.206;-6.106;2023-05-15T03:41:15;102325.31;;;20.50;52.49
58686;BME280;44465;53.206;-6.106;2023-05-15T03:43:41;102325.41;;;20.46;52.37
58686;BME280;44465;53.206;-6.106;2023-05-15T03:46:06;102326.28;;;20.47;52.35
58686;BME280;44465;53.206;-6.106;2023-05-15T03:48:32;102321.91;;;20.44;52.18
58686;BME280;44465;53.206;-6.106;2023-05-15T03:50:57;102316.59;;;20.43;52.34
58686;BME280;44465;53.206;-6.106;2023-05-15T03:53:23;102311.28;;;20.41;52.27
58686;BME280;44465;53.206;-6.106;2023-05-15T03:55:51;102315.66;;;20.44;52.31
58686;BME280;44465;53.206;-6.106;2023-05-15T03:58:16;102312.16;;;20.42;52.09
58686;BME280;44465;53.206;-6.106;2023-05-15T04:00:41;102308.56;;;20.43;52.36
58686;BME280;44465;53.206;-6.106;2023-05-15T04:03:07;102312.94;;;20.45;52.45
58686;BME280;44465;53.206;-6.106;2023-05-15T04:05:32;102313.81;;;20.46;52.52
58686;BME280;44465;53.206;-6.106;2023-05-15T04:07:58;102318.31;;;20.45;52.49
58686;BME280;44465;53.206;-6.106;2023-05-15T04:10:23;102321.84;;;20.46;52.44
58686;BME280;44465;53.206;-6.106;2023-05-15T04:12:49;102304.16;;;20.40;52.28
58686;BME280;44465;53.206;-6.106;2023-05-15T04:15:20;102312.94;;;20.45;52.46
58686;BME280;44465;53.206;-6.106;2023-05-15T04:17:48;102312.09;;;20.43;52.31
58686;BME280;44465;53.206;-6.106;2023-05-15T04:20:15;102309.44;;;20.43;52.28
58686;BME280;44465;53.206;-6.106;2023-05-15T04:22:41;102306.84;;;20.40;52.29
58686;BME280;44465;53.206;-6.106;2023-05-15T04:25:07;102308.66;;;20.40;52.33
58686;BME280;44465;53.206;-6.106;2023-05-15T04:27:34;102310.41;;;20.41;52.31
58686;BME280;44465;53.206;-6.106;2023-05-15T04:30:00;102309.50;;;20.40;52.31
58686;BME280;44465;53.206;-6.106;2023-05-15T04:32:26;102304.28;;;20.37;52.26
58686;BME280;44465;53.206;-6.106;2023-05-15T04:34:52;102316.63;;;20.41;52.32
58686;BME280;44465;53.206;-6.106;2023-05-15T04:37:17;102311.28;;;20.41;52.35
58686;BME280;44465;53.206;-6.106;2023-05-15T04:39:43;102300.75;;;20.35;52.55
58686;BME280;44465;53.206;-6.106;2023-05-15T04:42:08;102315.72;;;20.42;52.50
58686;BME280;44465;53.206;-6.106;2023-05-15T04:44:34;102317.47;;;20.43;52.22
58686;BME280;44465;53.206;-6.106;2023-05-15T04:46:59;102318.38;;;20.42;52.27
58686;BME280;44465;53.206;-6.106;2023-05-15T04:49:25;102305.97;;;20.40;52.52
58686;BME280;44465;53.206;-6.106;2023-05-15T04:51:50;102316.63;;;20.41;52.39
58686;BME280;44465;53.206;-6.106;2023-05-15T04:54:15;102315.72;;;20.42;52.30
58686;BME280;44465;53.206;-6.106;2023-05-15T04:56:41;102310.50;;;20.38;52.27
58686;BME280;44465;53.206;-6.106;2023-05-15T04:59:07;102312.19;;;20.40;52.31
58686;BME280;44465;53.206;-6.106;2023-05-15T05:01:33;102309.50;;;20.40;52.44
58686;BME280;44465;53.206;-6.106;2023-05-15T05:03:59;102318.47;;;20.39;52.18
58686;BME280;44465;53.206;-6.106;2023-05-15T05:06:24;102302.59;;;20.33;52.15
58686;BME280;44465;53.206;-6.106;2023-05-15T05:08:50;102308.72;;;20.37;52.12
58686;BME280;44465;53.206;-6.106;2023-05-15T05:11:15;102320.22;;;20.40;52.37
58686;BME280;44465;53.206;-6.106;2023-05-15T05:13:41;102319.28;;;20.41;52.25
58686;BME280;44465;53.206;-6.106;2023-05-15T05:16:06;102319.28;;;20.41;52.42
58686;BME280;44465;53.206;-6.106;2023-05-15T05:18:32;102321.06;;;20.42;52.29
58686;BME280;44465;53.206;-6.106;2023-05-15T05:21:02;102332.69;;;20.41;52.47
58686;BME280;44465;53.206;-6.106;2023-05-15T05:23:28;102335.34;;;20.41;52.59
58686;BME280;44465;53.206;-6.106;2023-05-15T05:25:54;102332.69;;;20.41;52.16
58686;BME280;44465;53.206;-6.106;2023-05-15T05:28:19;102338.94;;;20.42;52.47
58686;BME280;44465;53.206;-6.106;2023-05-15T05:30:45;102329.16;;;20.39;52.59
58686;BME280;44465;53.206;-6.106;2023-05-15T05:33:11;102338.94;;;20.40;52.29
58686;BME280;44465;53.206;-6.106;2023-05-15T05:35:37;102350.56;;;20.39;52.09
58686;BME280;44465;53.206;-6.106;2023-05-15T05:38:02;102339.00;;;20.39;52.15
58686;BME280;44465;53.206;-6.106;2023-05-15T05:40:28;102344.34;;;20.39;52.14
58686;BME280;44465;53.206;-6.106;2023-05-15T05:42:53;102339.06;;;20.36;52.16
58686;BME280;44465;53.206;-6.106;2023-05-15T05:45:19;102332.88;;;20.35;52.17
58686;BME280;44465;53.206;-6.106;2023-05-15T05:47:45;102341.63;;;20.40;52.39
58686;BME280;44465;53.206;-6.106;2023-05-15T05:50:10;102346.97;;;20.40;52.53
58686;BME280;44465;53.206;-6.106;2023-05-15T05:52:36;102348.78;;;20.40;52.58
58686;BME280;44465;53.206;-6.106;2023-05-15T05:55:01;102349.63;;;20.42;52.32
58686;BME280;44465;53.206;-6.106;2023-05-15T05:57:27;102350.50;;;20.42;52.53
58686;BME280;44465;53.206;-6.106;2023-05-15T05:59:52;102344.28;;;20.40;52.24
58686;BME280;44465;53.206;-6.106;2023-05-15T06:02:18;102346.03;;;20.43;52.44
58686;BME280;44465;53.206;-6.106;2023-05-15T06:04:44;102342.53;;;20.41;52.31
58686;BME280;44465;53.206;-6.106;2023-05-15T06:07:10;102345.13;;;20.42;51.92
58686;BME280;44465;53.206;-6.106;2023-05-15T06:09:36;102346.97;;;20.40;52.15
58686;BME280;44465;53.206;-6.106;2023-05-15T06:12:02;102344.28;;;20.40;52.14
58686;BME280;44465;53.206;-6.106;2023-05-15T06:14:29;102344.41;;;20.37;52.15
58686;BME280;44465;53.206;-6.106;2023-05-15T06:16:55;102355.00;;;20.40;52.05
58686;BME280;44465;53.206;-6.106;2023-05-15T06:19:20;102352.44;;;20.37;52.28
58686;BME280;44465;53.206;-6.106;2023-05-15T06:21:46;102353.28;;;20.38;52.25
58686;BME280;44465;53.206;-6.106;2023-05-15T06:24:11;102357.69;;;20.40;52.24
58686;BME280;44465;53.206;-6.106;2023-05-15T06:26:37;102356.75;;;20.43;52.40
58686;BME280;44465;53.206;-6.106;2023-05-15T06:29:02;102361.19;;;20.42;52.29
58686;BME280;44465;53.206;-6.106;2023-05-15T06:31:28;102369.22;;;20.42;52.20
58686;BME280;44465;53.206;-6.106;2023-05-15T06:33:53;102366.53;;;20.42;52.29
58686;BME280;44465;53.206;-6.106;2023-05-15T06:36:19;102365.69;;;20.42;52.25
58686;BME280;44465;53.206;-6.106;2023-05-15T06:38:44;102363.88;;;20.42;52.29
58686;BME280;44465;53.206;-6.106;2023-05-15T06:41:10;102365.69;;;20.42;52.27
58686;BME280;44465;53.206;-6.106;2023-05-15T06:43:35;102363.88;;;20.42;52.18
58686;BME280;44465;53.206;-6.106;2023-05-15T06:46:01;102355.06;;;20.39;52.29
58686;BME280;44465;53.206;-6.106;2023-05-15T06:48:26;102358.66;;;20.38;52.22
58686;BME280;44465;53.206;-6.106;2023-05-15T06:50:51;102359.50;;;20.40;52.22
58686;BME280;44465;53.206;-6.106;2023-05-15T06:53:17;102359.50;;;20.40;52.15
58686;BME280;44465;53.206;-6.106;2023-05-15T06:55:42;102353.28;;;20.38;52.09
58686;BME280;44465;53.206;-6.106;2023-05-15T06:58:08;102366.59;;;20.41;52.45
58686;BME280;44465;53.206;-6.106;2023-05-15T07:00:33;102363.00;;;20.42;52.33
58686;BME280;44465;53.206;-6.106;2023-05-15T07:02:59;102366.59;;;20.41;52.12
58686;BME280;44465;53.206;-6.106;2023-05-15T07:05:24;102369.16;;;20.44;52.21
58686;BME280;44465;53.206;-6.106;2023-05-15T07:07:50;102372.75;;;20.44;52.26
58686;BME280;44465;53.206;-6.106;2023-05-15T07:10:16;102374.56;;;20.42;52.48
58686;BME280;44465;53.206;-6.106;2023-05-15T07:12:41;102379.00;;;20.43;52.49
58686;BME280;44465;53.206;-6.106;2023-05-15T07:15:07;102371.97;;;20.39;52.38
58686;BME280;44465;53.206;-6.106;2023-05-15T07:17:32;102374.53;;;20.44;52.31
58686;BME280;44465;53.206;-6.106;2023-05-15T07:19:58;102373.66;;;20.43;52.26
58686;BME280;44465;53.206;-6.106;2023-05-15T07:22:26;102381.69;;;20.43;52.10
58686;BME280;44465;53.206;-6.106;2023-05-15T07:24:52;102377.25;;;20.42;52.37
58686;BME280;44465;53.206;-6.106;2023-05-15T07:27:17;102385.28;;;20.42;52.30
58686;BME280;44465;53.206;-6.106;2023-05-15T07:29:43;102386.19;;;20.41;52.12
58686;BME280;44465;53.206;-6.106;2023-05-15T07:32:08;102392.38;;;20.43;52.08
58686;BME280;44465;53.206;-6.106;2023-05-15T07:34:34;102403.94;;;20.45;52.50
58686;BME280;44465;53.206;-6.106;2023-05-15T07:36:59;102400.34;;;20.45;52.33
58686;BME280;44465;53.206;-6.106;2023-05-15T07:39:25;102403.03;;;20.45;52.16
58686;BME280;44465;53.206;-6.106;2023-05-15T07:41:50;102394.28;;;20.40;52.60
58686;BME280;44465;53.206;-6.106;2023-05-15T07:44:16;102410.31;;;20.40;52.52
58686;BME280;44465;53.206;-6.106;2023-05-15T07:46:41;102409.44;;;20.39;52.56
58686;BME280;44465;53.206;-6.106;2023-05-15T07:49:06;102406.81;;;20.38;52.43
58686;BME280;44465;53.206;-6.106;2023-05-15T07:51:32;102400.59;;;20.37;52.49
58686;BME280;44465;53.206;-6.106;2023-05-15T07:53:57;102410.41;;;20.37;52.55
58686;BME280;44465;53.206;-6.106;2023-05-15T07:56:23;102411.31;;;20.36;52.55
58686;BME280;44465;53.206;-6.106;2023-05-15T07:58:48;102412.22;;;20.36;52.47
58686;BME280;44465;53.206;-6.106;2023-05-15T08:01:14;102410.44;;;20.35;52.67
58686;BME280;44465;53.206;-6.106;2023-05-15T08:03:40;102405.09;;;20.35;52.49
58686;BME280;44465;53.206;-6.106;2023-05-15T08:06:05;102406.03;;;20.34;52.70
58686;BME280;44465;53.206;-6.106;2023-05-15T08:08:32;102407.81;;;20.34;52.57
58686;BME280;44465;53.206;-6.106;2023-05-15T08:10:58;102410.47;;;20.34;52.47
58686;BME280;44465;53.206;-6.106;2023-05-15T08:13:23;102413.13;;;20.35;52.83
58686;BME280;44465;53.206;-6.106;2023-05-15T08:15:49;102396.28;;;20.32;52.79
58686;BME280;44465;53.206;-6.106;2023-05-15T08:18:14;102417.56;;;20.36;52.50
58686;BME280;44465;53.206;-6.106;2023-05-15T08:20:40;102417.56;;;20.36;52.56
58686;BME280;44465;53.206;-6.106;2023-05-15T08:23:05;102406.03;;;20.34;52.94
58686;BME280;44465;53.206;-6.106;2023-05-15T08:25:30;102418.50;;;20.34;52.79
58686;BME280;44465;53.206;-6.106;2023-05-15T08:27:56;102422.94;;;20.35;52.73
58686;BME280;44465;53.206;-6.106;2023-05-15T08:30:21;102414.09;;;20.33;52.93
58686;BME280;44465;53.206;-6.106;2023-05-15T08:32:47;102427.41;;;20.34;52.96
58686;BME280;44465;53.206;-6.106;2023-05-15T08:35:13;102428.34;;;20.33;53.01
58686;BME280;44465;53.206;-6.106;2023-05-15T08:37:39;102421.19;;;20.34;52.98
58686;BME280;44465;53.206;-6.106;2023-05-15T08:40:05;102419.44;;;20.33;52.94
58686;BME280;44465;53.206;-6.106;2023-05-15T08:42:34;102427.41;;;20.34;53.03
58686;BME280;44465;53.206;-6.106;2023-05-15T08:45:02;102429.19;;;20.35;52.92
58686;BME280;44465;53.206;-6.106;2023-05-15T08:47:27;102429.13;;;20.37;53.09
58686;BME280;44465;53.206;-6.106;2023-05-15T08:52:19;102412.34;;;20.32;52.95
58686;BME280;44465;53.206;-6.106;2023-05-15T08:54:45;102417.56;;;20.36;53.08
58686;BME280;44465;53.206;-6.106;2023-05-15T08:57:13;102418.47;;;20.35;52.97
58686;BME280;44465;53.206;-6.106;2023-05-15T08:59:39;102425.50;;;20.39;53.03
58686;BME280;44465;53.206;-6.106;2023-05-15T09:02:05;102431.72;;;20.40;52.82
58686;BME280;44465;53.206;-6.106;2023-05-15T09:04:30;102418.47;;;20.35;52.97
58686;BME280;44465;53.206;-6.106;2023-05-15T09:06:58;102419.44;;;20.33;53.38
58686;BME280;44465;53.206;-6.106;2023-05-15T09:09:26;102429.13;;;20.38;53.11
58686;BME280;44465;53.206;-6.106;2023-05-15T09:11:52;102427.34;;;20.37;53.17
58686;BME280;44465;53.206;-6.106;2023-05-15T09:14:18;102420.25;;;20.36;53.23
58686;BME280;44465;53.206;-6.106;2023-05-15T09:16:43;102428.22;;;20.38;53.12
58686;BME280;44465;53.206;-6.106;2023-05-15T09:19:11;102427.34;;;20.37;53.17
58686;BME280;44465;53.206;-6.106;2023-05-15T09:21:38;102423.75;;;20.38;53.08
58686;BME280;44465;53.206;-6.106;2023-05-15T09:24:23;102424.69;;;20.36;53.13
58686;BME280;44465;53.206;-6.106;2023-05-15T09:27:06;102435.28;;;20.40;52.93
58686;BME280;44465;53.206;-6.106;2023-05-15T09:29:36;102434.34;;;20.41;52.95
58686;BME280;44465;53.206;-6.106;2023-05-15T09:32:06;102438.78;;;20.42;52.93
58686;BME280;44465;53.206;-6.106;2023-05-15T09:34:34;102428.94;;;20.44;53.21
58686;BME280;44465;53.206;-6.106;2023-05-15T09:37:01;102426.50;;;20.35;53.42
58686;BME280;44465;53.206;-6.106;2023-05-15T09:39:26;102429.13;;;20.38;53.23
58686;BME280;44465;53.206;-6.106;2023-05-15T09:41:52;102427.34;;;20.37;53.50
58686;BME280;44465;53.206;-6.106;2023-05-15T09:44:23;102436.13;;;20.42;53.29
58686;BME280;44465;53.206;-6.106;2023-05-15T09:46:49;102429.00;;;20.41;53.36
58686;BME280;44465;53.206;-6.106;2023-05-15T09:49:14;102420.25;;;20.36;53.42
58686;BME280;44465;53.206;-6.106;2023-05-15T09:51:42;102425.41;;;20.42;53.50
58686;BME280;44465;53.206;-6.106;2023-05-15T09:54:13;102421.81;;;20.43;53.34
58686;BME280;44465;53.206;-6.106;2023-05-15T09:56:45;102437.75;;;20.48;53.18
58686;BME280;44465;53.206;-6.106;2023-05-15T09:59:13;102428.84;;;20.48;53.43
58686;BME280;44465;53.206;-6.106;2023-05-15T10:01:41;102431.34;;;20.54;52.92
58686;BME280;44465;53.206;-6.106;2023-05-15T10:04:08;102419.81;;;20.52;53.08
58686;BME280;44465;53.206;-6.106;2023-05-15T10:06:35;102420.66;;;20.54;53.22
58686;BME280;44465;53.206;-6.106;2023-05-15T10:09:02;102424.19;;;20.54;52.97
58686;BME280;44465;53.206;-6.106;2023-05-15T10:11:29;102417.25;;;20.49;53.04
58686;BME280;44465;53.206;-6.106;2023-05-15T10:13:54;102430.44;;;20.55;53.10
58686;BME280;44465;53.206;-6.106;2023-05-15T10:16:20;102428.69;;;20.54;52.83
58686;BME280;44465;53.206;-6.106;2023-05-15T10:18:50;102435.78;;;20.55;52.92
58686;BME280;44465;53.206;-6.106;2023-05-15T10:21:16;102433.06;;;20.56;53.08
58686;BME280;44465;53.206;-6.106;2023-05-15T10:23:42;102439.19;;;20.60;52.82
58686;BME280;44465;53.206;-6.106;2023-05-15T10:26:45;102437.56;;;20.54;52.94
58686;BME280;44465;53.206;-6.106;2023-05-15T10:29:15;102437.50;;;20.57;52.62
58686;BME280;44465;53.206;-6.106;2023-05-15T10:31:41;102437.63;;;20.53;52.97
58686;BME280;44465;53.206;-6.106;2023-05-15T10:34:09;102438.53;;;20.53;53.39
58686;BME280;44465;53.206;-6.106;2023-05-15T10:36:36;102437.63;;;20.53;53.34
58686;BME280;44465;53.206;-6.106;2023-05-15T10:39:03;102435.66;;;20.59;53.08
58686;BME280;44465;53.206;-6.106;2023-05-15T10:41:30;102436.56;;;20.58;53.03
58686;BME280;44465;53.206;-6.106;2023-05-15T10:44:00;102438.53;;;20.53;53.13
58686;BME280;44465;53.206;-6.106;2023-05-15T10:46:28;102447.28;;;20.58;53.16
58686;BME280;44465;53.206;-6.106;2023-05-15T10:48:54;102448.19;;;20.59;52.76
58686;BME280;44465;53.206;-6.106;2023-05-15T10:51:26;102458.78;;;20.62;53.14
58686;BME280;44465;53.206;-6.106;2023-05-15T10:53:53;102448.97;;;20.63;53.17
58686;BME280;44465;53.206;-6.106;2023-05-15T10:56:19;102449.84;;;20.63;53.14
58686;BME280;44465;53.206;-6.106;2023-05-15T10:58:47;102450.63;;;20.67;53.24
58686;BME280;44465;53.206;-6.106;2023-05-15T11:01:26;102436.50;;;20.61;52.92
58686;BME280;44465;53.206;-6.106;2023-05-15T11:06:31;102447.03;;;20.68;52.95
58686;BME280;44465;53.206;-6.106;2023-05-15T11:12:01;102445.97;;;20.73;52.69
58686;BME280;44465;53.206;-6.106;2023-05-15T11:14:28;102448.72;;;20.70;52.88
58686;BME280;44465;53.206;-6.106;2023-05-15T11:22:01;102454.31;;;20.63;53.02
58686;BME280;44465;53.206;-6.106;2023-05-15T11:24:30;102457.78;;;20.66;52.77
58686;BME280;44465;53.206;-6.106;2023-05-15T11:27:03;102458.63;;;20.68;52.97
58686;BME280;44465;53.206;-6.106;2023-05-15T11:29:29;102447.03;;;20.68;52.95
58686;BME280;44465;53.206;-6.106;2023-05-15T11:31:56;102452.25;;;20.74;52.89
58686;BME280;44465;53.206;-6.106;2023-05-15T11:34:34;102447.81;;;20.71;52.87
58686;BME280;44465;53.206;-6.106;2023-05-15T11:37:00;102456.69;;;20.73;52.89
58686;BME280;44465;53.206;-6.106;2023-05-15T11:39:26;102461.19;;;20.73;52.76
58686;BME280;44465;53.206;-6.106;2023-05-15T11:41:55;102451.53;;;20.67;52.08
58686;BME280;44465;53.206;-6.106;2023-05-15T11:44:22;102452.44;;;20.66;51.34
58686;BME280;44465;53.206;-6.106;2023-05-15T11:46:51;102462.31;;;20.64;50.73
58686;BME280;44465;53.206;-6.106;2023-05-15T11:49:21;102465.91;;;20.63;50.83
58686;BME280;44465;53.206;-6.106;2023-05-15T11:51:49;102464.25;;;20.59;50.23
58686;BME280;44465;53.206;-6.106;2023-05-15T11:54:16;102458.97;;;20.56;50.03
58686;BME280;44465;53.206;-6.106;2023-05-15T11:56:43;102469.59;;;20.59;50.30
58686;BME280;44465;53.206;-6.106;2023-05-15T11:59:11;102462.47;;;20.58;50.17
58686;BME280;44465;53.206;-6.106;2023-05-15T12:01:42;102463.34;;;20.58;50.42
58686;BME280;44465;53.206;-6.106;2023-05-15T12:04:15;102467.84;;;20.58;50.44
58686;BME280;44465;53.206;-6.106;2023-05-15T12:06:41;102456.31;;;20.54;50.13
58686;BME280;44465;53.206;-6.106;2023-05-15T12:09:12;102467.00;;;20.56;50.26
58686;BME280;44465;53.206;-6.106;2023-05-15T12:11:39;102458.97;;;20.54;49.88
58686;BME280;44465;53.206;-6.106;2023-05-15T12:14:04;102458.13;;;20.54;49.85
58686;BME280;44465;53.206;-6.106;2023-05-15T12:16:30;102462.63;;;20.52;49.78
58686;BME280;44465;53.206;-6.106;2023-05-15T12:18:56;102454.53;;;20.55;50.35
58686;BME280;44465;53.206;-6.106;2023-05-15T12:21:21;102458.84;;;20.60;49.84
58686;BME280;44465;53.206;-6.106;2023-05-15T12:23:51;102461.50;;;20.60;50.21
58686;BME280;44465;53.206;-6.106;2023-05-15T12:26:20;102472.16;;;20.62;50.56
58686;BME280;44465;53.206;-6.106;2023-05-15T12:28:48;102461.59;;;20.57;50.69
58686;BME280;44465;53.206;-6.106;2023-05-15T12:31:14;102468.56;;;20.63;50.28
58686;BME280;44465;53.206;-6.106;2023-05-15T12:33:42;102466.78;;;20.64;50.83
58686;BME280;44465;53.206;-6.106;2023-05-15T12:36:08;102467.66;;;20.64;50.87
58686;BME280;44465;53.206;-6.106;2023-05-15T12:38:35;102471.19;;;20.66;50.68
58686;BME280;44465;53.206;-6.106;2023-05-15T12:41:01;102477.41;;;20.67;50.89
58686;BME280;44465;53.206;-6.106;2023-05-15T12:43:26;102468.53;;;20.65;51.21
58686;BME280;44465;53.206;-6.106;2023-05-15T12:45:52;102471.09;;;20.69;51.11
58686;BME280;44465;53.206;-6.106;2023-05-15T12:48:18;102461.31;;;20.68;51.14
58686;BME280;44465;53.206;-6.106;2023-05-15T12:50:45;102463.06;;;20.69;51.11
58686;BME280;44465;53.206;-6.106;2023-05-15T12:53:14;102458.53;;;20.71;51.29
58686;BME280;44465;53.206;-6.106;2023-05-15T12:55:41;102469.97;;;20.78;51.35
58686;BME280;44465;53.206;-6.106;2023-05-15T12:58:10;102469.97;;;20.80;51.18
58686;BME280;44465;53.206;-6.106;2023-05-15T13:00:41;102478.94;;;20.77;51.20
58686;BME280;44465;53.206;-6.106;2023-05-15T13:03:09;102469.06;;;20.79;51.53
58686;BME280;44465;53.206;-6.106;2023-05-15T13:05:35;102458.47;;;20.74;51.34
58686;BME280;44465;53.206;-6.106;2023-05-15T13:08:02;102476.13;;;20.82;51.31
58686;BME280;44465;53.206;-6.106;2023-05-15T13:10:31;102470.75;;;20.82;51.39